Time;durP1;ratioP1;P1;durP2;ratioP2;P2;SDS_P1;SDS_P2;PMS_P1;PMS_P2;Temp;Humidity;BMP_temperature;BMP_pressure;BME280_temperature;BME280_humidity;BME280_pressure;Samples;Min_cycle;Max_cycle;Signal;HPM_P1;HPM_P2
2022/06/08 00:01:42;;;;;;;2.60;2.40;;;;;;;18.89;51.67;94523.28;4997380;28;20211;-65
2022/06/08 00:04:12;;;;;;;2.90;2.33;;;;;;;18.90;51.77;94521.47;4999403;28;20222;-65
2022/06/08 00:06:37;;;;;;;3.80;2.75;;;;;;;18.62;52.41;94522.63;4998426;28;20227;-64
2022/06/08 00:09:03;;;;;;;3.60;2.65;;;;;;;18.68;52.27;94528.94;4997647;28;20219;-63
2022/06/08 00:11:28;;;;;;;2.72;2.50;;;;;;;18.78;52.10;94518.66;4998443;28;20249;-63
2022/06/08 00:13:54;;;;;;;3.15;2.60;;;;;;;18.79;52.23;94512.31;5003473;28;20281;-64
2022/06/08 00:16:20;;;;;;;2.80;2.58;;;;;;;18.58;53.01;94515.25;4994060;28;20250;-64
2022/06/08 00:18:46;;;;;;;3.70;2.70;;;;;;;18.67;52.38;94500.69;4997142;28;20242;-65
2022/06/08 00:21:15;;;;;;;2.80;2.40;;;;;;;18.72;52.04;94503.53;5001338;28;20227;-63
2022/06/08 00:23:41;;;;;;;2.53;2.38;;;;;;;18.60;52.13;94511.34;5006476;28;20219;-65
2022/06/08 00:26:07;;;;;;;2.75;2.55;;;;;;;18.58;52.22;94505.44;4994165;28;20237;-63
2022/06/08 00:28:33;;;;;;;3.30;3.00;;;;;;;18.61;52.06;94507.69;4993180;28;20211;-63
2022/06/08 00:30:59;;;;;;;3.17;2.45;;;;;;;18.76;51.86;94509.25;4994865;28;20203;-64
2022/06/08 00:33:25;;;;;;;2.80;2.60;;;;;;;18.81;51.17;94514.75;4992453;28;20226;-62
2022/06/08 00:35:50;;;;;;;4.10;2.50;;;;;;;18.67;51.59;94508.66;4998009;28;20238;-63
2022/06/08 00:38:16;;;;;;;2.95;2.42;;;;;;;18.81;51.32;94512.09;4998567;28;20227;-65
2022/06/08 00:40:41;;;;;;;3.85;2.38;;;;;;;18.50;51.85;94517.16;4989871;28;20278;-64
2022/06/08 00:43:07;;;;;;;2.65;2.40;;;;;;;18.39;52.08;94504.53;4996486;28;20223;-63
2022/06/08 00:45:33;;;;;;;3.65;2.42;;;;;;;18.13;52.77;94509.97;5001364;28;20226;-63
2022/06/08 00:48:02;;;;;;;2.63;2.42;;;;;;;18.22;52.29;94508.69;4991580;28;20219;-63
2022/06/08 00:50:45;;;;;;;2.97;2.40;;;;;;;18.05;52.97;94519.81;5012806;28;20234;-63
2022/06/08 00:53:14;;;;;;;3.47;2.50;;;;;;;18.00;53.24;94516.94;5007392;28;20259;-64
2022/06/08 00:55:41;;;;;;;3.65;2.38;;;;;;;18.16;53.08;94521.00;4989580;28;20322;-63
2022/06/08 00:58:18;;;;;;;2.50;2.22;;;;;;;18.23;52.28;94508.50;5001926;28;20237;-64
2022/06/08 01:00:45;;;;;;;2.50;2.30;;;;;;;18.23;52.39;94515.63;4991096;28;20229;-63
2022/06/08 01:03:12;;;;;;;5.45;2.50;;;;;;;18.26;52.09;94510.72;5000707;28;20318;-64
2022/06/08 01:05:57;;;;;;;2.70;2.40;;;;;;;18.23;52.46;94512.97;5005560;28;20268;-65
2022/06/08 01:08:26;;;;;;;3.25;2.63;;;;;;;17.97;52.97;94513.91;4999046;28;20230;-63
2022/06/08 01:10:55;;;;;;;3.20;2.30;;;;;;;17.87;53.80;94517.00;5003635;28;20285;-64
2022/06/08 01:13:21;;;;;;;3.22;2.40;;;;;;;18.01;52.83;94513.25;5004081;28;20213;-65
2022/06/08 01:15:47;;;;;;;2.60;2.40;;;;;;;18.02;52.82;94504.28;5010212;28;20247;-65
2022/06/08 01:18:13;;;;;;;2.70;2.50;;;;;;;17.94;52.98;94507.16;5006380;28;20593;-66
2022/06/08 01:20:51;;;;;;;2.58;2.38;;;;;;;17.81;53.47;94499.22;5005714;28;20279;-65
2022/06/08 01:23:21;;;;;;;2.50;2.30;;;;;;;17.77;53.42;94490.78;4995341;28;20222;-65
2022/06/08 01:26:17;;;;;;;3.17;2.47;;;;;;;17.75;53.57;94495.53;4980588;28;20219;-65
2022/06/08 01:29:02;;;;;;;3.42;2.90;;;;;;;17.66;53.80;94501.25;5012970;28;20221;-65
2022/06/08 01:31:34;;;;;;;3.33;2.78;;;;;;;17.72;53.73;94497.75;4997510;28;20280;-64
2022/06/08 01:34:20;;;;;;;3.08;2.78;;;;;;;17.66;53.95;94496.75;4994570;28;20214;-65
2022/06/08 01:37:07;;;;;;;2.95;2.65;;;;;;;17.55;54.14;94492.09;4994380;28;20523;-64
2022/06/08 01:39:49;;;;;;;2.85;2.60;;;;;;;17.57;54.17;94495.34;5003679;28;20230;-65
2022/06/08 01:42:43;;;;;;;2.65;2.45;;;;;;;17.54;54.25;94495.78;4999093;28;20226;-66
2022/06/08 01:45:37;;;;;;;3.15;2.85;;;;;;;17.58;54.33;94503.09;4998188;28;20322;-65
2022/06/08 01:48:02;;;;;;;3.17;2.88;;;;;;;17.60;54.20;94490.44;5001128;28;20215;-64
2022/06/08 01:50:35;;;;;;;3.38;3.08;;;;;;;17.50;54.41;94495.34;4996531;28;20293;-63
2022/06/08 01:53:36;;;;;;;4.85;2.92;;;;;;;17.63;54.33;94497.19;4993243;28;20225;-65
2022/06/08 01:56:22;;;;;;;4.53;3.00;;;;;;;17.47;54.99;94500.28;4976348;28;20232;-66
2022/06/08 01:58:53;;;;;;;3.13;2.85;;;;;;;17.23;55.63;94499.88;4917594;29;20481;-65
2022/06/08 02:01:24;;;;;;;4.10;3.20;;;;;;;17.38;55.76;94503.16;4919956;29;20217;-66
2022/06/08 02:04:11;;;;;;;3.80;3.15;;;;;;;17.12;56.32;94493.34;4917561;29;20244;-66
2022/06/08 02:06:52;;;;;;;3.55;3.25;;;;;;;16.76;57.78;94499.84;4932011;29;20316;-63
2022/06/08 02:09:28;;;;;;;3.53;2.95;;;;;;;17.20;57.47;94493.16;4912143;29;20243;-63
2022/06/08 02:12:13;;;;;;;3.55;2.92;;;;;;;17.15;57.68;94495.59;4934076;29;20260;-65
2022/06/08 02:14:54;;;;;;;3.40;3.10;;;;;;;16.86;57.95;94485.38;4931907;29;20272;-64
2022/06/08 02:17:37;;;;;;;3.60;3.30;;;;;;;16.62;59.52;94492.06;4916356;29;20241;-66
2022/06/08 02:20:07;;;;;;;3.30;2.95;;;;;;;16.83;58.87;94488.44;4932045;28;20310;-65
2022/06/08 02:22:42;;;;;;;5.57;3.20;;;;;;;16.71;59.08;94486.38;4933699;29;20228;-63
2022/06/08 02:25:15;;;;;;;5.40;3.60;;;;;;;16.69;59.22;94477.78;4931152;29;20209;-63
2022/06/08 02:28:18;;;;;;;5.20;3.50;;;;;;;16.85;59.16;94481.09;4914099;29;20229;-65
2022/06/08 02:31:29;;;;;;;4.30;3.40;;;;;;;16.49;60.32;94479.56;4930704;29;20232;-65
2022/06/08 02:37:02;;;;;;;7.03;4.07;;;;;;;16.67;59.76;94490.44;4956612;28;20243;-66
2022/06/08 02:39:43;;;;;;;5.90;3.60;;;;;;;17.05;58.79;94494.38;4936970;28;20281;-65
2022/06/08 02:42:18;;;;;;;8.05;3.40;;;;;;;17.06;58.32;94488.88;4939697;28;20339;-65
2022/06/08 02:44:48;;;;;;;4.18;3.83;;;;;;;16.91;58.79;94482.94;4947769;28;20259;-64
2022/06/08 02:47:19;;;;;;;5.18;3.45;;;;;;;16.43;61.12;94489.16;4925607;28;20749;-64
2022/06/08 02:49:45;;;;;;;4.50;3.83;;;;;;;16.33;61.89;94475.44;4948857;28;20211;-65
2022/06/08 02:52:19;;;;;;;6.60;3.70;;;;;;;16.47;61.12;94476.31;4961207;28;20216;-65
2022/06/08 02:54:46;;;;;;;4.25;3.85;;;;;;;16.40;61.55;94483.44;4941932;28;20255;-64
2022/06/08 02:57:30;;;;;;;3.75;3.42;;;;;;;16.64;60.67;94492.69;4946715;28;20220;-65
2022/06/08 03:00:07;;;;;;;5.05;3.50;;;;;;;16.72;60.38;94501.25;4948017;28;20255;-65
2022/06/08 03:02:58;;;;;;;5.38;4.10;;;;;;;16.88;60.09;94502.75;4938474;28;20236;-65
2022/06/08 03:05:28;;;;;;;4.72;4.03;;;;;;;16.69;60.59;94504.31;4946057;28;20225;-63
2022/06/08 03:08:00;;;;;;;5.40;4.30;;;;;;;16.60;60.99;94502.91;4944155;28;20681;-66
2022/06/08 03:10:30;;;;;;;4.65;4.25;;;;;;;16.65;61.59;94503.09;4977958;28;20215;-65
2022/06/08 03:13:13;;;;;;;6.57;4.38;;;;;;;16.50;62.00;94521.03;4995858;28;20218;-63
2022/06/08 03:15:41;;;;;;;5.25;4.63;;;;;;;16.36;62.53;94512.22;4996784;28;20235;-64
2022/06/08 03:18:07;;;;;;;5.30;4.80;;;;;;;16.50;61.51;94511.22;5001771;28;20247;-65
2022/06/08 03:20:33;;;;;;;8.95;5.18;;;;;;;16.57;61.78;94516.53;4994899;28;20223;-65
2022/06/08 03:22:59;;;;;;;5.28;4.82;;;;;;;16.55;61.66;94521.25;5003453;28;20215;-66
2022/06/08 03:25:24;;;;;;;5.32;4.57;;;;;;;16.45;61.92;94515.50;5001066;28;20299;-64
2022/06/08 03:27:51;;;;;;;6.88;4.60;;;;;;;16.48;62.12;94518.56;4998317;28;20223;-64
2022/06/08 03:30:18;;;;;;;5.78;4.60;;;;;;;16.54;62.21;94523.09;4990623;28;20219;-71
2022/06/08 03:32:44;;;;;;;5.50;4.70;;;;;;;16.71;61.33;94518.22;4999695;28;20254;-70
2022/06/08 03:35:10;;;;;;;5.55;5.00;;;;;;;16.75;61.04;94518.63;5003129;28;20242;-71
2022/06/08 03:37:36;;;;;;;5.60;5.10;;;;;;;16.62;61.43;94511.44;4999718;28;20223;-70
2022/06/08 03:40:03;;;;;;;8.77;5.07;;;;;;;16.69;61.44;94519.44;4997332;28;20211;-71
2022/06/08 03:42:28;;;;;;;5.68;5.10;;;;;;;16.74;61.41;94523.13;5005549;28;20226;-69
2022/06/08 03:44:54;;;;;;;6.63;4.80;;;;;;;16.70;61.30;94519.22;4998494;28;20587;-68
2022/06/08 03:47:24;;;;;;;7.60;5.47;;;;;;;16.70;61.68;94516.56;4993280;28;20238;-67
2022/06/08 03:49:55;;;;;;;6.07;4.70;;;;;;;16.86;61.73;94518.06;4990570;28;20279;-68
2022/06/08 03:52:24;;;;;;;6.75;4.75;;;;;;;16.88;61.74;94513.38;5002273;28;20218;-70
2022/06/08 03:54:55;;;;;;;5.43;4.93;;;;;;;17.02;61.46;94513.38;4994317;28;20235;-69
2022/06/08 03:57:22;;;;;;;6.28;5.63;;;;;;;17.22;60.78;94513.41;4995080;28;20254;-68
2022/06/08 03:59:49;;;;;;;5.72;4.93;;;;;;;17.13;60.90;94507.44;5003144;28;20269;-67
2022/06/08 04:02:15;;;;;;;5.75;5.03;;;;;;;17.47;59.51;94518.88;4999756;28;20253;-69
2022/06/08 04:04:41;;;;;;;9.35;5.05;;;;;;;17.63;58.88;94521.09;4995706;28;20221;-68
2022/06/08 04:07:07;;;;;;;5.50;4.95;;;;;;;17.49;59.50;94519.50;4996309;28;20195;-67
2022/06/08 04:09:33;;;;;;;5.75;5.15;;;;;;;17.55;59.72;94518.66;4995639;28;20234;-67
2022/06/08 04:11:58;;;;;;;5.80;5.10;;;;;;;17.69;58.83;94522.13;4993791;28;20223;-69
2022/06/08 04:14:24;;;;;;;5.88;5.03;;;;;;;17.46;59.83;94518.06;4993803;28;20710;-63
2022/06/08 04:16:51;;;;;;;8.57;5.45;;;;;;;17.73;59.12;94513.53;5001881;28;20227;-69
2022/06/08 04:19:17;;;;;;;6.40;5.80;;;;;;;17.69;58.64;94512.28;4996234;28;20203;-62
2022/06/08 04:21:44;;;;;;;8.13;5.60;;;;;;;17.62;58.90;94512.31;4993106;28;20235;-63
2022/06/08 04:24:13;;;;;;;6.75;6.10;;;;;;;17.74;58.70;94506.34;4996798;28;21250;-68
2022/06/08 04:26:38;;;;;;;6.55;5.95;;;;;;;17.59;59.24;94499.44;4992114;28;20226;-65
2022/06/08 04:29:05;;;;;;;6.45;5.80;;;;;;;17.60;59.29;94508.22;4999114;28;20226;-71
2022/06/08 04:31:34;;;;;;;7.72;6.22;;;;;;;17.72;59.18;94503.94;4991627;28;20267;-68
2022/06/08 04:34:04;;;;;;;7.63;6.03;;;;;;;17.83;58.73;94503.31;5001362;28;20206;-67
2022/06/08 04:36:31;;;;;;;10.68;6.18;;;;;;;17.82;58.78;94493.69;4996539;28;20321;-64
2022/06/08 04:38:57;;;;;;;6.45;5.25;;;;;;;17.91;58.47;94496.94;4990788;28;20227;-65
2022/06/08 04:41:23;;;;;;;9.10;6.25;;;;;;;17.51;59.82;94497.00;5001383;28;20237;-64
2022/06/08 04:43:49;;;;;;;7.55;6.03;;;;;;;17.71;59.40;94490.81;4998636;28;20226;-70
2022/06/08 04:46:17;;;;;;;6.00;5.53;;;;;;;17.84;59.20;94485.50;4994863;28;20211;-65
2022/06/08 04:48:44;;;;;;;8.45;5.80;;;;;;;17.96;58.78;94489.16;4994926;28;20215;-71
2022/06/08 04:51:10;;;;;;;9.52;6.82;;;;;;;17.96;58.95;94499.78;4995234;28;20230;-71
2022/06/08 04:53:38;;;;;;;11.85;6.35;;;;;;;18.08;58.11;94500.75;4994758;28;20214;-69
2022/06/08 04:56:04;;;;;;;8.60;6.25;;;;;;;18.15;57.58;94505.22;4999110;28;20230;-71
2022/06/08 04:58:29;;;;;;;8.13;6.03;;;;;;;18.17;57.18;94503.19;4992545;28;20230;-68
2022/06/08 05:00:55;;;;;;;6.60;6.00;;;;;;;18.27;56.69;94507.03;4990642;28;20249;-70
2022/06/08 05:03:21;;;;;;;8.02;5.93;;;;;;;18.38;56.26;94512.72;5001920;28;20230;-69
2022/06/08 05:05:47;;;;;;;11.85;6.72;;;;;;;18.46;55.98;94515.94;4997615;28;20224;-66
2022/06/08 05:08:13;;;;;;;8.55;6.30;;;;;;;18.48;55.32;94511.22;5002774;28;20230;-65
2022/06/08 05:10:39;;;;;;;9.35;5.78;;;;;;;18.36;55.84;94506.78;5000777;28;20236;-66
2022/06/08 05:13:06;;;;;;;6.82;4.80;;;;;;;18.41;55.09;94497.13;4998524;28;20203;-67
2022/06/08 05:15:36;;;;;;;5.75;4.13;;;;;;;18.48;54.74;94508.56;4993770;28;20251;-70
2022/06/08 05:18:03;;;;;;;7.00;3.92;;;;;;;18.54;54.17;94496.25;4993730;28;20234;-63
2022/06/08 05:20:30;;;;;;;6.63;4.20;;;;;;;18.30;54.89;94503.13;4990353;28;20253;-64
2022/06/08 05:22:57;;;;;;;3.95;3.58;;;;;;;18.54;54.74;94503.41;4986847;28;20239;-70
2022/06/08 05:25:33;;;;;;;4.43;3.95;;;;;;;18.67;54.55;94504.16;4995566;28;20273;-67
2022/06/08 05:28:00;;;;;;;10.75;3.85;;;;;;;18.56;55.48;94509.34;5001843;28;20472;-69
2022/06/08 05:30:26;;;;;;;6.13;4.28;;;;;;;18.60;55.15;94511.34;4991810;28;20301;-68
2022/06/08 05:32:53;;;;;;;6.68;4.20;;;;;;;18.79;54.24;94508.81;5001711;28;20551;-63
2022/06/08 05:35:20;;;;;;;9.48;3.95;;;;;;;18.80;53.59;94508.63;4999674;28;20234;-67
2022/06/08 05:37:46;;;;;;;4.90;3.92;;;;;;;18.81;53.56;94506.75;4999024;28;20262;-71
2022/06/08 05:40:12;;;;;;;20.10;5.68;;;;;;;18.88;53.63;94519.00;4990671;28;20531;-63
2022/06/08 05:42:38;;;;;;;10.48;4.45;;;;;;;18.88;54.04;94511.03;5001200;28;20219;-67
2022/06/08 05:45:07;;;;;;;7.35;4.40;;;;;;;18.92;53.71;94514.06;4995066;28;20302;-70
2022/06/08 05:47:32;;;;;;;6.55;4.65;;;;;;;18.91;53.48;94515.91;5000954;28;20301;-69
2022/06/08 05:49:58;;;;;;;7.57;4.85;;;;;;;19.03;52.96;94509.88;4990184;28;20286;-67
2022/06/08 05:52:25;;;;;;;5.18;4.40;;;;;;;19.08;53.03;94507.38;5001118;28;20754;-64
2022/06/08 05:54:51;;;;;;;5.88;4.20;;;;;;;19.17;52.67;94509.56;5002417;28;20218;-73
2022/06/08 05:57:17;;;;;;;7.32;4.85;;;;;;;19.38;52.37;94508.38;4997983;28;20219;-68
2022/06/08 05:59:42;;;;;;;4.88;4.18;;;;;;;19.43;52.33;94506.91;4993127;28;20227;-63
2022/06/08 06:02:11;;;;;;;10.25;4.63;;;;;;;19.67;51.39;94506.06;4996078;28;20231;-62
2022/06/08 06:04:37;;;;;;;7.30;4.63;;;;;;;19.70;51.02;94515.50;4994960;28;20222;-69
2022/06/08 06:07:03;;;;;;;4.45;4.03;;;;;;;19.75;51.50;94503.16;5000955;28;20309;-63
2022/06/08 06:09:28;;;;;;;7.10;4.65;;;;;;;19.71;50.94;94501.94;4999925;28;20314;-60
2022/06/08 06:11:54;;;;;;;7.47;4.10;;;;;;;19.92;50.93;94510.56;4999990;28;20228;-67
2022/06/08 06:14:19;;;;;;;5.63;4.45;;;;;;;20.02;49.74;94503.69;5001318;28;20227;-64
2022/06/08 06:16:45;;;;;;;5.20;4.63;;;;;;;20.16;48.97;94504.34;4992249;28;20211;-64
2022/06/08 06:19:11;;;;;;;8.32;4.43;;;;;;;20.31;48.58;94505.78;5000197;28;20214;-62
2022/06/08 06:21:37;;;;;;;7.90;4.13;;;;;;;20.41;48.27;94506.06;5002731;28;20297;-60
2022/06/08 06:24:03;;;;;;;7.65;4.22;;;;;;;20.39;48.40;94492.13;4996201;28;20283;-70
2022/06/08 06:26:29;;;;;;;11.07;4.95;;;;;;;20.57;48.36;94491.31;5002359;28;20238;-69
2022/06/08 06:28:56;;;;;;;9.55;4.30;;;;;;;20.52;48.37;94486.63;4993350;28;20279;-64
2022/06/08 06:31:43;;;;;;;7.05;4.53;;;;;;;20.44;48.71;94486.94;4977414;28;20211;-71
2022/06/08 06:34:15;;;;;;;7.30;4.85;;;;;;;20.44;48.45;94478.91;4991745;28;20313;-71
2022/06/08 06:36:40;;;;;;;6.72;5.75;;;;;;;20.72;48.07;94480.22;4993604;28;20318;-64
2022/06/08 06:39:06;;;;;;;7.32;4.88;;;;;;;20.85;48.30;94485.34;5004174;28;20313;-63
2022/06/08 06:41:32;;;;;;;6.80;5.03;;;;;;;20.91;48.21;94479.94;5000567;28;20250;-63
2022/06/08 06:43:59;;;;;;;11.05;5.18;;;;;;;20.93;48.36;94480.50;4992185;28;20288;-62
2022/06/08 06:46:25;;;;;;;7.88;4.07;;;;;;;20.90;48.23;94488.16;4989911;28;20256;-63
2022/06/08 06:48:50;;;;;;;11.35;5.53;;;;;;;20.87;48.36;94478.75;4993218;28;20215;-63
2022/06/08 06:51:16;;;;;;;6.65;4.68;;;;;;;20.77;48.47;94475.00;4998153;28;20214;-62
2022/06/08 06:53:41;;;;;;;10.38;4.75;;;;;;;20.71;48.61;94466.03;4994410;28;20227;-69
2022/06/08 06:56:08;;;;;;;9.90;4.85;;;;;;;20.61;49.17;94461.25;4997691;28;20219;-68
2022/06/08 06:58:35;;;;;;;6.38;4.10;;;;;;;20.62;49.31;94462.06;4996235;28;20250;-64
2022/06/08 07:01:00;;;;;;;9.32;4.80;;;;;;;20.75;48.72;94458.41;5002028;28;20203;-68
2022/06/08 07:03:26;;;;;;;7.68;4.82;;;;;;;20.70;47.31;94467.91;4996412;28;20230;-69
2022/06/08 07:05:51;;;;;;;8.55;4.85;;;;;;;20.67;47.10;94460.34;4998355;28;20225;-68
2022/06/08 07:08:17;;;;;;;6.65;4.20;;;;;;;20.68;47.61;94463.81;4990608;28;20370;-62
2022/06/08 07:10:44;;;;;;;8.95;5.00;;;;;;;20.68;47.88;94461.16;4999960;28;20210;-69
2022/06/08 07:13:09;;;;;;;6.43;4.55;;;;;;;20.78;48.03;94461.41;5001211;28;20208;-61
2022/06/08 07:15:38;;;;;;;6.53;4.18;;;;;;;20.92;47.79;94464.69;5001513;28;20246;-70
2022/06/08 07:18:03;;;;;;;7.72;4.53;;;;;;;21.18;46.35;94468.81;4994089;28;20245;-69
2022/06/08 07:20:29;;;;;;;9.43;4.40;;;;;;;21.46;45.41;94470.81;4996864;28;20230;-62
2022/06/08 07:22:54;;;;;;;7.32;4.05;;;;;;;21.74;45.40;94472.81;5000770;28;21167;-62
2022/06/08 07:25:20;;;;;;;4.28;3.03;;;;;;;22.01;43.13;94474.97;4998853;28;20206;-65
2022/06/08 07:27:47;;;;;;;5.57;4.50;;;;;;;21.95;43.85;94475.94;5000875;28;20238;-62
2022/06/08 07:30:13;;;;;;;3.85;3.30;;;;;;;21.85;42.96;94475.72;4997592;28;20230;-63
2022/06/08 07:32:40;;;;;;;3.80;2.90;;;;;;;21.93;42.75;94478.81;4994340;28;20231;-65
2022/06/08 07:35:06;;;;;;;7.50;3.10;;;;;;;21.78;43.73;94478.50;4995213;28;20231;-66
2022/06/08 07:37:32;;;;;;;5.07;3.00;;;;;;;21.51;43.65;94478.16;4994333;28;20254;-64
2022/06/08 07:39:58;;;;;;;5.90;3.05;;;;;;;21.54;43.74;94481.19;4994556;28;20242;-68
2022/06/08 07:42:23;;;;;;;5.38;3.08;;;;;;;21.50;42.53;94485.38;5003713;28;20227;-67
2022/06/08 07:44:49;;;;;;;6.93;2.78;;;;;;;21.48;42.90;94476.75;5000963;28;20223;-67
2022/06/08 07:47:14;;;;;;;6.90;3.40;;;;;;;21.59;42.60;94486.63;5001766;28;20225;-70
2022/06/08 07:49:41;;;;;;;4.72;2.92;;;;;;;21.61;42.25;94482.94;4996602;28;20373;-66
2022/06/08 07:52:11;;;;;;;29.95;5.15;;;;;;;21.49;42.59;94486.44;4994276;28;20203;-68
2022/06/08 07:54:38;;;;;;;33.45;5.55;;;;;;;21.64;42.72;94482.47;4997627;28;20226;-68
2022/06/08 07:57:05;;;;;;;12.55;3.55;;;;;;;21.32;42.21;94485.44;5000244;28;20227;-62
2022/06/08 07:59:33;;;;;;;15.25;3.55;;;;;;;21.43;43.23;94489.22;4992777;28;20234;-65
2022/06/08 08:01:59;;;;;;;5.28;3.22;;;;;;;21.51;42.66;94481.63;4999189;28;20230;-68
2022/06/08 08:04:25;;;;;;;8.48;3.30;;;;;;;21.82;42.56;94477.00;4997882;28;20214;-63
2022/06/08 08:06:51;;;;;;;12.85;3.00;;;;;;;21.91;41.85;94478.25;5002609;28;20317;-69
2022/06/08 08:09:22;;;;;;;4.72;2.60;;;;;;;21.82;41.07;94477.00;4992463;28;20246;-63
2022/06/08 08:11:51;;;;;;;5.90;3.00;;;;;;;21.83;40.90;94469.78;4992480;28;20234;-64
2022/06/08 08:14:18;;;;;;;4.20;2.95;;;;;;;21.86;40.67;94470.09;4997035;28;20231;-65
2022/06/08 08:16:44;;;;;;;3.35;2.55;;;;;;;21.89;40.71;94468.81;4990906;28;20210;-64
2022/06/08 08:19:12;;;;;;;5.22;3.22;;;;;;;21.85;42.02;94468.50;4991415;28;20307;-63
2022/06/08 08:21:38;;;;;;;4.05;3.00;;;;;;;21.90;41.97;94457.09;5001854;28;20293;-68
2022/06/08 08:24:07;;;;;;;5.90;2.80;;;;;;;21.92;42.90;94457.63;5002589;28;20226;-70
2022/06/08 08:26:33;;;;;;;3.78;2.80;;;;;;;22.03;41.72;94470.22;4998546;28;20314;-67
2022/06/08 08:28:59;;;;;;;3.22;2.38;;;;;;;22.09;42.76;94455.06;4990947;28;20278;-64
2022/06/08 08:31:26;;;;;;;3.67;2.60;;;;;;;21.96;41.53;94451.59;4997688;28;20230;-71
2022/06/08 08:33:51;;;;;;;3.65;2.60;;;;;;;21.99;39.33;94448.44;4996780;28;20235;-68
2022/06/08 08:36:18;;;;;;;3.45;2.30;;;;;;;22.12;39.61;94446.56;4998859;28;20284;-72
2022/06/08 08:38:43;;;;;;;3.17;2.60;;;;;;;22.02;38.89;94441.78;4999826;28;20227;-70
2022/06/08 08:43:58;;;;;;;3.20;2.17;;;;;;;22.24;36.35;94440.16;4996760;28;20583;-68
2022/06/08 08:46:45;;;;;;;4.10;2.80;;;;;;;22.30;38.52;94438.38;4994055;28;20207;-62
2022/06/08 08:49:23;;;;;;;3.38;2.60;;;;;;;22.27;40.38;94430.81;4991342;28;20226;-69
2022/06/08 08:52:00;;;;;;;2.97;2.30;;;;;;;22.26;39.24;94433.72;4994046;28;20246;-61
2022/06/08 08:54:34;;;;;;;2.92;2.65;;;;;;;22.29;39.27;94434.06;4993488;28;20223;-69
2022/06/08 08:57:43;;;;;;;2.80;2.10;;;;;;;22.40;38.80;94433.22;4999520;28;20334;-65
2022/06/08 09:00:18;;;;;;;3.63;2.50;;;;;;;22.53;40.21;94425.91;4961229;28;20234;-66
2022/06/08 09:05:30;;;;;;;5.50;2.75;;;;;;;22.57;39.34;94422.53;4972911;28;20235;-64
2022/06/08 09:07:58;;;;;;;5.18;3.00;;;;;;;22.54;39.98;94420.34;4964499;28;20307;-64
2022/06/08 09:10:25;;;;;;;4.85;2.75;;;;;;;22.46;40.38;94424.22;4962214;28;20236;-63
2022/06/08 09:12:52;;;;;;;3.38;2.40;;;;;;;22.64;37.57;94423.19;4964941;28;20297;-62
2022/06/08 09:15:41;;;;;;;6.55;2.70;;;;;;;22.70;37.56;94424.09;4975091;28;20360;-64
2022/06/08 09:18:17;;;;;;;2.63;2.30;;;;;;;22.73;39.20;94420.94;4978235;28;20275;-68
2022/06/08 09:20:42;;;;;;;3.25;2.45;;;;;;;22.78;38.69;94412.97;4962913;28;20238;-67
2022/06/08 09:23:34;;;;;;;2.88;2.22;;;;;;;22.93;37.83;94404.38;4953445;28;20224;-68
2022/06/08 09:26:07;;;;;;;3.38;2.28;;;;;;;22.90;39.62;94411.03;4959139;28;20298;-65
2022/06/08 09:28:33;;;;;;;5.20;2.42;;;;;;;22.96;39.30;94409.28;4961365;28;20200;-65
2022/06/08 09:30:59;;;;;;;6.72;2.10;;;;;;;23.09;38.84;94414.34;4971713;28;20216;-63
2022/06/08 09:33:38;;;;;;;6.40;2.72;;;;;;;23.28;37.65;94406.84;4970640;28;20252;-69
2022/06/08 09:36:08;;;;;;;3.08;2.15;;;;;;;23.45;36.72;94412.19;4967705;28;20238;-69
2022/06/08 09:38:42;;;;;;;2.83;2.03;;;;;;;23.47;35.82;94410.06;4993515;28;20301;-64
2022/06/08 09:41:24;;;;;;;2.60;2.00;;;;;;;23.52;36.76;94402.09;4988889;28;20246;-65
2022/06/08 09:44:06;;;;;;;2.45;2.08;;;;;;;23.68;36.99;94394.22;5008383;28;20230;-65
2022/06/08 09:53:25;;;;;;;2.22;1.90;;;;;;;24.10;36.25;94383.78;4967656;28;20590;-64
2022/06/08 09:56:18;;;;;;;3.33;1.92;;;;;;;24.29;34.13;94389.63;4890431;29;20270;-68
2022/06/08 09:59:09;;;;;;;4.78;1.80;;;;;;;24.25;35.36;94385.03;4894509;29;20302;-68
2022/06/08 10:01:45;;;;;;;2.13;1.80;;;;;;;24.42;35.41;94373.09;4890045;29;20206;-66
2022/06/08 10:04:41;;;;;;;3.30;1.90;;;;;;;24.49;35.26;94372.94;4890013;29;20267;-67
2022/06/08 10:07:09;;;;;;;3.55;2.20;;;;;;;24.74;36.09;94376.91;4893984;29;20234;-63
2022/06/08 10:09:43;;;;;;;2.97;2.00;;;;;;;24.84;33.11;94377.81;4893174;29;20809;-62
2022/06/08 10:12:14;;;;;;;2.40;2.08;;;;;;;24.86;34.28;94367.63;4891259;29;20234;-66
2022/06/08 10:14:45;;;;;;;2.10;1.90;;;;;;;24.84;32.14;94368.94;4909114;29;20261;-66
2022/06/08 10:17:11;;;;;;;2.47;1.80;;;;;;;24.93;32.19;94363.91;4891895;29;20307;-62
2022/06/08 10:20:12;;;;;;;3.67;1.98;;;;;;;24.93;31.77;94362.00;4890949;29;20230;-64
2022/06/08 10:22:43;;;;;;;4.47;2.40;;;;;;;25.04;30.74;94360.22;4891804;29;20218;-65
2022/06/08 10:25:33;;;;;;;2.85;2.65;;;;;;;25.19;30.81;94365.75;4911891;28;20303;-66
2022/06/08 10:28:05;;;;;;;2.05;1.70;;;;;;;25.37;31.53;94356.44;4946440;28;20322;-67
2022/06/08 10:30:54;;;;;;;8.80;3.08;;;;;;;25.64;32.23;94355.50;4962748;28;20259;-66
2022/06/08 10:33:36;;;;;;;17.30;3.10;;;;;;;25.65;30.31;94349.03;5007303;28;20229;-63
2022/06/08 10:36:03;;;;;;;9.07;2.20;;;;;;;25.75;31.88;94341.81;4997477;28;20227;-69
2022/06/08 10:38:32;;;;;;;3.90;1.77;;;;;;;26.03;31.80;94345.19;4995911;28;20684;-62
2022/06/08 10:41:04;;;;;;;6.47;1.88;;;;;;;26.05;31.46;94340.34;4998687;28;20230;-62
2022/06/08 10:43:37;;;;;;;4.13;2.40;;;;;;;25.95;30.93;94346.53;5005304;28;20206;-65
2022/06/08 10:46:28;;;;;;;2.22;2.03;;;;;;;26.13;30.33;94342.53;4998853;28;20658;-69
2022/06/08 10:48:54;;;;;;;4.38;2.20;;;;;;;26.28;29.35;94333.69;5000520;28;20215;-67
2022/06/08 10:51:27;;;;;;;3.13;1.70;;;;;;;26.27;29.55;94336.63;5000524;28;20277;-66
2022/06/08 10:56:38;;;;;;;2.33;1.80;;;;;;;26.55;29.59;94330.78;4996121;28;20752;-64
2022/06/08 10:59:07;;;;;;;2.72;1.83;;;;;;;26.70;31.27;94340.75;4998485;28;20257;-61
2022/06/08 11:01:37;;;;;;;3.38;2.00;;;;;;;26.56;30.46;94339.66;5004134;28;20206;-63
2022/06/08 11:04:07;;;;;;;4.10;2.03;;;;;;;26.79;30.07;94344.53;5004197;28;20474;-69
2022/06/08 11:06:51;;;;;;;2.03;1.83;;;;;;;27.02;30.39;94336.97;5000522;28;20221;-67
2022/06/08 11:09:20;;;;;;;3.92;2.10;;;;;;;26.97;30.58;94331.56;5008666;28;20258;-69
2022/06/08 11:11:50;;;;;;;3.05;1.90;;;;;;;27.03;32.76;94327.81;5000778;28;20237;-67
2022/06/08 11:14:47;;;;;;;2.97;2.15;;;;;;;27.30;30.54;94326.72;4993615;28;20227;-69
2022/06/08 11:17:45;;;;;;;12.80;2.92;;;;;;;27.53;33.11;94326.09;5008095;28;20227;-65
2022/06/08 11:20:36;;;;;;;5.65;1.95;;;;;;;27.75;30.70;94319.56;4999430;28;20223;-66
2022/06/08 11:23:25;;;;;;;2.50;1.95;;;;;;;27.73;28.37;94324.44;4990680;28;20307;-70
2022/06/08 11:26:14;;;;;;;2.45;1.95;;;;;;;27.64;29.28;94314.22;4938596;28;20234;-66
2022/06/08 11:28:45;;;;;;;2.45;2.25;;;;;;;27.74;28.89;94309.84;4958529;28;20367;-71
2022/06/08 11:31:25;;;;;;;3.70;2.05;;;;;;;27.40;28.92;94305.09;4959094;28;20211;-71
2022/06/08 11:34:19;;;;;;;3.63;2.42;;;;;;;27.79;30.02;94301.72;4957726;28;20231;-65
2022/06/08 11:36:53;;;;;;;2.10;2.00;;;;;;;27.89;29.03;94291.72;4946616;28;20228;-66
2022/06/08 11:39:46;;;;;;;2.63;2.00;;;;;;;27.89;29.48;94297.09;4940694;28;20319;-71
2022/06/08 11:42:33;;;;;;;4.57;2.22;;;;;;;28.00;28.64;94286.25;4956353;28;20335;-70
2022/06/08 11:45:25;;;;;;;3.13;2.30;;;;;;;28.40;28.91;94278.97;4954309;28;20299;-66
2022/06/08 11:48:08;;;;;;;3.55;2.17;;;;;;;28.88;29.83;94281.88;4888401;29;20261;-65
2022/06/08 11:50:47;;;;;;;5.40;2.33;;;;;;;29.20;28.36;94289.44;4908154;29;20276;-65
2022/06/08 11:53:19;;;;;;;3.60;2.70;;;;;;;29.30;27.66;94285.81;4893849;29;20226;-71
2022/06/08 11:55:59;;;;;;;2.38;2.17;;;;;;;29.40;26.46;94278.41;4910394;29;20222;-66
2022/06/08 11:58:28;;;;;;;2.80;2.22;;;;;;;29.41;25.81;94271.88;4894203;29;20222;-67
2022/06/08 12:00:57;;;;;;;2.78;2.50;;;;;;;29.74;27.49;94269.38;4889665;29;20226;-71
2022/06/08 12:03:34;;;;;;;3.08;2.35;;;;;;;30.03;26.62;94271.97;4932714;28;20567;-71
2022/06/08 12:06:22;;;;;;;2.30;2.10;;;;;;;30.27;24.70;94265.72;4918218;29;20283;-65
2022/06/08 12:08:57;;;;;;;4.57;2.83;;;;;;;30.20;24.48;94266.03;4913774;28;20228;-68
2022/06/08 12:11:28;;;;;;;2.40;2.30;;;;;;;30.48;24.33;94268.91;4932745;28;20299;-69
2022/06/08 12:14:03;;;;;;;2.38;2.15;;;;;;;31.13;23.27;94271.66;4930717;28;20228;-61